Home > Products > Valid Products > MTR

000
SAUS44 KLZK 272154
MTRMWT
METAR KMWT 272153Z AUTO VRB03KT 10SM BKN060 OVC070 M02/M13 A3046 RMK
AO2 SLP333 T10171128





000
SAUS44 KLZK 272054
MTRMWT
METAR KMWT 272053Z AUTO VRB03KT 10SM BKN055 OVC070 M02/M12 A3048 RMK
AO2 SLP336 T10171122 58006





000
SAUS44 KLZK 272054
MTRMWT
METAR KMWT 272053Z AUTO VRB03KT 10SM BKN055 OVC070 M02/M12 A3048 RMK
AO2 SLP336 T10171122 58006





000
SAUS44 KLZK 271954
MTRMWT
METAR KMWT 271953Z AUTO 00000KT 10SM OVC075 M02/M13 A3049 RMK AO2
SLP340 T10221128





000
SAUS44 KLZK 271954
MTRMWT
METAR KMWT 271953Z AUTO 00000KT 10SM OVC075 M02/M13 A3049 RMK AO2
SLP340 T10221128





000
SAUS44 KLZK 271854
MTRMWT
METAR KMWT 271853Z AUTO VRB03KT 10SM BKN090 M02/M12 A3051 RMK AO2
SLP347 T10171122





000
SAUS44 KLZK 271854
MTRMWT
METAR KMWT 271853Z AUTO VRB03KT 10SM BKN090 M02/M12 A3051 RMK AO2
SLP347 T10171122





000
SAUS44 KLZK 271754
MTRMWT
METAR KMWT 271753Z AUTO VRB05KT 10SM FEW090 M02/M13 A3050 RMK AO2
SLP343 T10221128 11022 21067 58005





000
SAUS44 KLZK 271754
MTRMWT
METAR KMWT 271753Z AUTO VRB05KT 10SM FEW090 M02/M13 A3050 RMK AO2
SLP343 T10221128 11022 21067 58005





000
SAUS44 KLZK 271654
MTRMWT
METAR KMWT 271653Z AUTO VRB05KT 10SM BKN100 M03/M12 A3051 RMK AO2
SLP346 T10281117





000
SAUS44 KLZK 271654
MTRMWT
METAR KMWT 271653Z AUTO VRB05KT 10SM BKN100 M03/M12 A3051 RMK AO2
SLP346 T10281117





000
SAUS44 KLZK 271554
MTRMWT
METAR KMWT 271553Z AUTO 11006KT 10SM CLR M04/M12 A3050 RMK AO2
SLP346 T10391122





000
SAUS44 KLZK 271454
MTRMWT
METAR KMWT 271453Z AUTO 10SM CLR M04/M13 A3051 RMK AO2 SLP348
T10441128 51015





000
SAUS44 KLZK 271454
MTRMWT
METAR KMWT 271453Z AUTO 10SM CLR M04/M13 A3051 RMK AO2 SLP348
T10441128 51015





000
SAUS44 KLZK 271354
MTRMWT
METAR KMWT 271353Z AUTO VRB04KT 10SM CLR M06/M13 A3050 RMK AO2
SLP345 T10561133





000
SAUS44 KLZK 271354
MTRMWT
METAR KMWT 271353Z AUTO VRB04KT 10SM CLR M06/M13 A3050 RMK AO2
SLP345 T10561133





000
SAUS44 KLZK 271254
MTRMWT
METAR KMWT 271253Z AUTO VRB03KT 10SM CLR M07/M13 A3048 RMK AO2
SLP336 T10671128





000
SAUS44 KLZK 271154
MTRMWT
METAR KMWT 271153Z AUTO 00000KT 10SM CLR M06/M12 A3047 RMK AO2
SLP333 T10611122 11028 21061 53010





000
SAUS44 KLZK 271054
MTRMWT
METAR KMWT 271053Z AUTO VRB04KT 10SM CLR M06/M13 A3044 RMK AO2
SLP324 T10561128





000
SAUS44 KLZK 270854
MTRMWT
METAR KMWT 270853Z AUTO 00000KT 10SM CLR M04/M12 A3044 RMK AO2
SLP319 T10441122 53005





000
SAUS44 KLZK 270754
MTRMWT
METAR KMWT 270753Z AUTO VRB03KT 10SM CLR M04/M11 A3042 RMK AO2
SLP312 T10391111





000
SAUS44 KLZK 270655
MTRMWT
METAR KMWT 270653Z AUTO 00000KT 10SM CLR M03/M11 A3042 RMK AO2
SLP313 T10331111





000
SAUS44 KLZK 270554
MTRMWT
METAR KMWT 270553Z AUTO 00000KT 10SM CLR M03/M11 A3042 RMK AO2
SLP314 T10281111 10011 21028 400501044 53017





000
SAUS44 KLZK 270454
MTRMWT
METAR KMWT 270453Z AUTO 36004KT 10SM CLR M02/M11 A3041 RMK AO2
SLP310 T10221106





000
SAUS44 KLZK 270354
MTRMWT
METAR KMWT 270353Z AUTO VRB03KT 10SM CLR M02/M09 A3038 RMK AO2
SLP302 T10171094





000
SAUS44 KLZK 270255
MTRMWT
METAR KMWT 270253Z AUTO 00000KT 10SM CLR M01/M10 A3037 RMK AO2
SLP297 T10061100 53032





000
SAUS44 KLZK 270155
MTRMWT
METAR KMWT 270153Z AUTO 34004KT 10SM FEW120 00/M09 A3034 RMK AO2
SLP286 T00001094





000
SAUS44 KLZK 270054
MTRMWT
METAR KMWT 270053Z AUTO 34005KT 10SM CLR 01/M08 A3029 RMK AO2 SLP271
T00061083





000
SAUS44 KLZK 262354
MTRMWT
METAR KMWT 262353Z AUTO 34007KT 10SM BKN110 01/M08 A3027 RMK AO2
SLP263 T00111083 10050 20011 51021





000
SAUS44 KLZK 262254
MTRMWT
METAR KMWT 262253Z AUTO 34006KT 10SM FEW120 03/M08 A3026 RMK AO2
SLP258 T00281078





000
SAUS44 KLZK 262254
MTRMWT
METAR KMWT 262253Z AUTO 34006KT 10SM FEW120 03/M08 A3026 RMK AO2
SLP258 T00281078





000
SAUS44 KLZK 262154
MTRMWT
METAR KMWT 262153Z AUTO 34007G15KT 10SM CLR 03/M07 A3024 RMK AO2
SLP253 T00281072





000
SAUS44 KLZK 262054
MTRMWT
METAR KMWT 262053Z AUTO 10SM CLR 04/M07 A3021 RMK AO2 SLP242
T00391067 53004





000
SAUS44 KLZK 261955
MTRMWT
METAR KMWT 261953Z AUTO 34007G18KT 10SM CLR 03/M06 A3020 RMK AO2
SLP239 T00331061





000
SAUS44 KLZK 261855
MTRMWT
METAR KMWT 261853Z AUTO 34010KT 310V030 10SM FEW034 03/M05 A3020 RMK
AO2 SLP239 T00331050





000
SAUS44 KLZK 261754
MTRMWT
METAR KMWT 261753Z AUTO 35009G16KT 310V040 10SM SCT030 03/M05 A3020
RMK AO2 SLP238 T00281050 10028 20000 51027





000
SAUS44 KLZK 261754
MTRMWT
METAR KMWT 261753Z AUTO 35009G16KT 310V040 10SM SCT030 03/M05 A3020
RMK AO2 SLP238 T00281050 10028 20000 51027





000
SAUS44 KLZK 261744
MTRMWT
SPECI KMWT 261743Z AUTO 35008G18KT 320V040 10SM BKN030 02/M05 A3020
RMK AO2 T00221050





000
SAUS44 KLZK 261654
MTRMWT
METAR KMWT 261653Z AUTO 34007G16KT 290V360 10SM OVC025 01/M06 A3018
RMK AO2 SLP233 T00061056





000
SAUS44 KLZK 261654
MTRMWT
METAR KMWT 261653Z AUTO 34007G16KT 290V360 10SM OVC025 01/M06 A3018
RMK AO2 SLP233 T00061056





000
SAUS44 KLZK 261554
MTRMWT
METAR KMWT 261553Z AUTO 32008G20KT 270V350 10SM OVC022 00/M05 A3015
RMK AO2 SLP223 T00001050





000
SAUS44 KLZK 261554
MTRMWT
METAR KMWT 261553Z AUTO 32008G20KT 270V350 10SM OVC022 00/M05 A3015
RMK AO2 SLP223 T00001050





000
SAUS44 KLZK 261254
MTRMWT
METAR KMWT 261253Z AUTO 31007KT 7SM OVC015 01/M02 A3003 RMK AO2
SLP182 T00061017





000
SAUS44 KLZK 261254
MTRMWT
METAR KMWT 261253Z AUTO 31007KT 7SM OVC015 01/M02 A3003 RMK AO2
SLP182 T00061017





000
SAUS44 KLZK 261154
MTRMWT
METAR KMWT 261153Z AUTO 32008KT 7SM BKN016 OVC060 01/M01 A2999 RMK
AO2 SLP167 70015 T00061011 10006 21044 51031





000
SAUS44 KLZK 261154
MTRMWT
METAR KMWT 261153Z AUTO 32008KT 7SM BKN016 OVC060 01/M01 A2999 RMK
AO2 SLP167 70015 T00061011 10006 21044 51031





000
SAUS44 KLZK 261137
MTRMWT
SPECI KMWT 261136Z AUTO 32006KT 9SM BKN017 OVC065 00/M02 A3000 RMK
AO2 T00001022





000
SAUS44 KLZK 261137
MTRMWT
SPECI KMWT 261136Z AUTO 32006KT 9SM BKN017 OVC065 00/M02 A3000 RMK
AO2 T00001022





000
SAUS44 KLZK 261054
MTRMWT
METAR KMWT 261053Z AUTO 30004KT 10SM OVC070 M03/M05 A2997 RMK AO2
SLP160 T10331050





000
SAUS44 KLZK 261054
MTRMWT
METAR KMWT 261053Z AUTO 30004KT 10SM OVC070 M03/M05 A2997 RMK AO2
SLP160 T10331050





000
SAUS44 KLZK 260954
MTRMWT
METAR KMWT 260953Z AUTO 00000KT 10SM CLR M04/M06 A2993 RMK AO2
SLP148 T10441056





000
SAUS44 KLZK 260854
MTRMWT
METAR KMWT 260853Z AUTO 00000KT 10SM CLR M04/M06 A2990 RMK AO2
SLP138 T10391056 53009





000
SAUS44 KLZK 260854
MTRMWT
METAR KMWT 260853Z AUTO 00000KT 10SM CLR M04/M06 A2990 RMK AO2
SLP138 T10391056 53009





000
SAUS44 KLZK 260754
MTRMWT
METAR KMWT 260753Z AUTO 00000KT 10SM CLR M03/M05 A2990 RMK AO2
SLP137 T10281050





000
SAUS44 KLZK 260655
MTRMWT
METAR KMWT 260653Z AUTO 00000KT 10SM CLR M03/M04 A2987 RMK AO2
SLP128 T10331044





000
SAUS44 KLZK 260655
MTRMWT
METAR KMWT 260653Z AUTO 00000KT 10SM CLR M03/M04 A2987 RMK AO2
SLP128 T10331044





000
SAUS44 KLZK 260554
MTRMWT
METAR KMWT 260553Z AUTO 00000KT 10SM CLR M02/M04 A2987 RMK AO2
SLP128 T10221039 10022 21022 400281022 50008





000
SAUS44 KLZK 260554
MTRMWT
METAR KMWT 260553Z AUTO 00000KT 10SM CLR M02/M04 A2987 RMK AO2
SLP128 T10221039 10022 21022 400281022 50008





000
SAUS44 KLZK 260454
MTRMWT
METAR KMWT 260453Z AUTO 00000KT 9SM CLR M02/M03 A2988 RMK AO2 SLP132
T10171028





000
SAUS44 KLZK 260454
MTRMWT
METAR KMWT 260453Z AUTO 00000KT 9SM CLR M02/M03 A2988 RMK AO2 SLP132
T10171028





000
SAUS44 KLZK 260355
MTRMWT
METAR KMWT 260353Z AUTO 00000KT 8SM CLR M02/M03 A2987 RMK AO2 SLP127
T10171028





000
SAUS44 KLZK 260255
MTRMWT
METAR KMWT 260253Z AUTO 00000KT 8SM CLR M01/M02 A2985 RMK AO2 SLP120
T10111022 51020





000
SAUS44 KLZK 260255
MTRMWT
METAR KMWT 260253Z AUTO 00000KT 8SM CLR M01/M02 A2985 RMK AO2 SLP120
T10111022 51020





000
SAUS44 KLZK 260157 COR
MTRMWT
METAR KMWT 260153Z AUTO 00000KT 3SM BR CLR M01/M02 A2983 RMK AO2
SLP113 T10061022





000
SAUS44 KLZK 260054
MTRMWT
METAR KMWT 260053Z AUTO 00000KT 8SM CLR 01/M01 A2981 RMK AO2 SLP107
T00061011





000
SAUS44 KLZK 260054
MTRMWT
METAR KMWT 260053Z AUTO 00000KT 8SM CLR 01/M01 A2981 RMK AO2 SLP107
T00061011





000
SAUS44 KLZK 260044
MTRMWT
SPECI KMWT 260042Z AUTO 00000KT 10SM SCT023 01/M01 A2982 RMK AO2
T00111006





000
SAUS44 KLZK 260044
MTRMWT
SPECI KMWT 260042Z AUTO 00000KT 10SM SCT023 01/M01 A2982 RMK AO2
T00111006





000
SAUS44 KLZK 252354
MTRMWT
METAR KMWT 252353Z AUTO 00000KT 10SM OVC018 02/00 A2979 RMK AO2
SLP098 60004 T00170000 10028 20006 55004





000
SAUS44 KLZK 252330
MTRMWT
SPECI KMWT 252329Z AUTO 00000KT 10SM OVC015 02/00 A2979 RMK AO2
T00220000





000
SAUS44 KLZK 252330
MTRMWT
SPECI KMWT 252329Z AUTO 00000KT 10SM OVC015 02/00 A2979 RMK AO2
T00220000





000
SAUS44 KLZK 252254
MTRMWT
METAR KMWT 252253Z AUTO 00000KT 10SM OVC013 02/00 A2977 RMK AO2
SLP094 T00220000





000
SAUS44 KLZK 252254
MTRMWT
METAR KMWT 252253Z AUTO 00000KT 10SM OVC013 02/00 A2977 RMK AO2
SLP094 T00220000





000
SAUS44 KLZK 252245
MTRMWT
SPECI KMWT 252243Z AUTO 00000KT 10SM OVC013 02/M01 A2977 RMK AO2
T00221006





000
SAUS44 KLZK 252245
MTRMWT
SPECI KMWT 252243Z AUTO 00000KT 10SM OVC013 02/M01 A2977 RMK AO2
T00221006





000
SAUS44 KLZK 252228
MTRMWT
SPECI KMWT 252226Z AUTO 00000KT 10SM OVC015 03/M01 A2977 RMK AO2
T00281006





000
SAUS44 KLZK 252228
MTRMWT
SPECI KMWT 252226Z AUTO 00000KT 10SM OVC015 03/M01 A2977 RMK AO2
T00281006





000
SAUS44 KLZK 252212
MTRMWT
SPECI KMWT 252211Z AUTO 00000KT 10SM BKN013 03/M01 A2977 RMK AO2
T00281006





000
SAUS44 KLZK 252205 COR
MTRMWT
SPECI KMWT 252201Z AUTO 00000KT 10SM SCT013 BKN027 02/M01 A2977 RMK
AO2 T00221011





000
SAUS44 KLZK 252205 COR
MTRMWT
SPECI KMWT 252201Z AUTO 00000KT 10SM SCT013 BKN027 02/M01 A2977 RMK
AO2 T00221011





000
SAUS44 KLZK 252154
MTRMWT
METAR KMWT 252153Z AUTO 00000KT 10SM BKN013 BKN027 03/M01 A2977 RMK
AO2 SLP092 T00281006





000
SAUS44 KLZK 252142
MTRMWT
SPECI KMWT 252141Z AUTO 00000KT 10SM BKN013 OVC026 03/M01 A2978 RMK
AO2 T00281006





000
SAUS44 KLZK 252142
MTRMWT
SPECI KMWT 252141Z AUTO 00000KT 10SM BKN013 OVC026 03/M01 A2978 RMK
AO2 T00281006





000
SAUS44 KLZK 252054
MTRMWT
METAR KMWT 252053Z AUTO 00000KT 10SM BKN009 OVC012 02/M01 A2980 RMK
AO2 SLP102 60004 T00171006 56021





000
SAUS44 KLZK 252054
MTRMWT
METAR KMWT 252053Z AUTO 00000KT 10SM BKN009 OVC012 02/M01 A2980 RMK
AO2 SLP102 60004 T00171006 56021





000
SAUS44 KLZK 251954
MTRMWT
METAR KMWT 251953Z AUTO 00000KT 9SM OVC007 01/M01 A2980 RMK AO2
SNE49 SLP104 P0001 T00111006





000
SAUS44 KLZK 251920
MTRMWT
SPECI KMWT 251918Z AUTO 00000KT 3SM -SN BR BKN007 OVC020 01/M01
A2982 RMK AO2 P0000 T00111011





000
SAUS44 KLZK 251907
MTRMWT
SPECI KMWT 251905Z AUTO 00000KT 2 1/2SM -SN BR OVC006 01/M01 A2982
RMK AO2 P0000 T00061011





000
SAUS44 KLZK 251854
MTRMWT
METAR KMWT 251853Z AUTO 00000KT 1 3/4SM -SN BR BKN006 OVC023 01/M01
A2983 RMK AO2 SLP112 P0003 T00111006





000
SAUS44 KLZK 251754
MTRMWT
METAR KMWT 251753Z AUTO 00000KT 1 1/4SM -SN BR BKN005 BKN023 OVC034
01/M01 A2986 RMK AO2 SLP124 P0003 60011 T00061011 10006 21006 58012





000
SAUS44 KLZK 251713
MTRMWT
SPECI KMWT 251712Z AUTO 00000KT 1SM -SN BR BKN006 OVC020 00/M02
A2987 RMK AO2 P0001 T00001017





000
SAUS44 KLZK 251713
MTRMWT
SPECI KMWT 251712Z AUTO 00000KT 1SM -SN BR BKN006 OVC020 00/M02
A2987 RMK AO2 P0001 T00001017





000
SAUS44 KLZK 251704
MTRMWT
SPECI KMWT 251703Z AUTO 00000KT 1SM -SN BR SCT006 OVC020 00/M02
A2988 RMK AO2 P0001 T00001017





000
SAUS44 KLZK 251655
MTRMWT
METAR KMWT 251653Z AUTO 00000KT 3/4SM -SN BR SCT006 OVC018 00/M02
A2988 RMK AO2 SLP129 P0005 T00001017





000
SAUS44 KLZK 251655
MTRMWT
METAR KMWT 251653Z AUTO 00000KT 3/4SM -SN BR SCT006 OVC018 00/M02
A2988 RMK AO2 SLP129 P0005 T00001017





000
SAUS44 KLZK 251636
MTRMWT
SPECI KMWT 251635Z AUTO 00000KT 3/4SM -SN BR SCT005 OVC020 00/M02
A2988 RMK AO2 P0004 T00001017





000
SAUS44 KLZK 251624
MTRMWT
SPECI KMWT 251622Z AUTO 00000KT 1SM -SN BR FEW005 OVC022 M01/M02
A2988 RMK AO2 P0003 T10061017





000
SAUS44 KLZK 251624
MTRMWT
SPECI KMWT 251622Z AUTO 00000KT 1SM -SN BR FEW005 OVC022 M01/M02
A2988 RMK AO2 P0003 T10061017





000
SAUS44 KLZK 251615
MTRMWT
SPECI KMWT 251614Z AUTO 00000KT 3/4SM -SN BR FEW005 OVC020 M01/M02
A2989 RMK AO2 P0002 T10061017





000
SAUS44 KLZK 251615
MTRMWT
SPECI KMWT 251614Z AUTO 00000KT 3/4SM -SN BR FEW005 OVC020 M01/M02
A2989 RMK AO2 P0002 T10061017





000
SAUS44 KLZK 251606
MTRMWT
SPECI KMWT 251604Z AUTO 00000KT 3/4SM -SN BR VV020 00/M02 A2989 RMK
AO2 P0001 T00001022





000
SAUS44 KLZK 251606
MTRMWT
SPECI KMWT 251604Z AUTO 00000KT 3/4SM -SN BR VV020 00/M02 A2989 RMK
AO2 P0001 T00001022





000
SAUS44 KLZK 251554
MTRMWT
METAR KMWT 251553Z AUTO 00000KT 1SM -SN BR OVC023 M01/M02 A2989 RMK
AO2 SLP134 P0002 T10061022





000
SAUS44 KLZK 251534
MTRMWT
SPECI KMWT 251532Z AUTO 00000KT 3/4SM -SN BR OVC027 00/M02 A2989 RMK
AO2 P0001 T00001022





000
SAUS44 KLZK 251525
MTRMWT
SPECI KMWT 251524Z AUTO 00000KT 1 3/4SM -SN BR BKN036 OVC060 00/M02
A2990 RMK AO2 P0000 T00001022





000
SAUS44 KLZK 251455
MTRMWT
METAR KMWT 251453Z AUTO 00000KT 4SM -SN BR BKN035 OVC055 M01/M02
A2989 RMK AO2 SNB31 SLP134 P0001 60001 T10061022 58003





000
SAUS44 KLZK 251354
MTRMWT
METAR KMWT 251353Z AUTO 00000KT 10SM OVC100 M01/M02 A2990 RMK AO2
SLP136 T10061022





000
SAUS44 KLZK 251354
MTRMWT
METAR KMWT 251353Z AUTO 00000KT 10SM OVC100 M01/M02 A2990 RMK AO2
SLP136 T10061022





000
SAUS44 KLZK 251254
MTRMWT
METAR KMWT 251253Z AUTO 00000KT 10SM SCT080 OVC100 M01/M02 A2990 RMK
AO2 UPE53 SLP135 P0000 T10061022





000
SAUS44 KLZK 251254
MTRMWT
METAR KMWT 251253Z AUTO 00000KT 10SM SCT080 OVC100 M01/M02 A2990 RMK
AO2 UPE53 SLP135 P0000 T10061022





000
SAUS44 KLZK 251154
MTRMWT
METAR KMWT 251153Z AUTO 00000KT 9SM UP FEW055 OVC070 M01/M02 A2990
RMK AO2 UPB32 SLP135 P0001 60001 70001 T10061022 11006 21017 56021





000
SAUS44 KLZK 251154
MTRMWT
METAR KMWT 251153Z AUTO 00000KT 9SM UP FEW055 OVC070 M01/M02 A2990
RMK AO2 UPB32 SLP135 P0001 60001 70001 T10061022 11006 21017 56021





000
SAUS44 KLZK 251054
MTRMWT
METAR KMWT 251053Z AUTO 00000KT 10SM BKN095 OVC120 M01/M03 A2990 RMK
AO2 SLP136 T10111028





000
SAUS44 KLZK 251054
MTRMWT
METAR KMWT 251053Z AUTO 00000KT 10SM BKN095 OVC120 M01/M03 A2990 RMK
AO2 SLP136 T10111028





000
SAUS44 KLZK 250954
MTRMWT
METAR KMWT 250953Z AUTO 00000KT 10SM BKN120 M01/M03 A2993 RMK AO2
SLP145 T10111028





000
SAUS44 KLZK 250854
MTRMWT
METAR KMWT 250853Z AUTO 00000KT 10SM CLR M01/M03 A2996 RMK AO2
SLP155 T10111033 51005





000
SAUS44 KLZK 250754
MTRMWT
METAR KMWT 250753Z AUTO 00000KT 10SM CLR M02/M03 A2996 RMK AO2
SLP155 T10171033





000
SAUS44 KLZK 250654
MTRMWT
METAR KMWT 250653Z AUTO 00000KT 10SM CLR M02/M03 A2996 RMK AO2
SLP157 T10171033





000
SAUS44 KLZK 250554
MTRMWT
METAR KMWT 250553Z AUTO 00000KT 10SM CLR M01/M03 A2995 RMK AO2
SLP152 T10111033 10033 21017 400561050 58016





000
SAUS44 KLZK 250454
MTRMWT
METAR KMWT 250453Z AUTO 00000KT 10SM CLR M01/M03 A2999 RMK AO2
SLP168 T10111033





000
SAUS44 KLZK 250354
MTRMWT
METAR KMWT 250353Z AUTO 00000KT 10SM CLR M01/M03 A3001 RMK AO2
SLP177 T10111033





000
SAUS44 KLZK 250354
MTRMWT
METAR KMWT 250353Z AUTO 00000KT 10SM CLR M01/M03 A3001 RMK AO2
SLP177 T10111033





000
SAUS44 KLZK 250254
MTRMWT
METAR KMWT 250253Z AUTO 00000KT 10SM CLR M01/M04 A2999 RMK AO2
SLP171 T10111039 55003





000
SAUS44 KLZK 250254
MTRMWT
METAR KMWT 250253Z AUTO 00000KT 10SM CLR M01/M04 A2999 RMK AO2
SLP171 T10111039 55003





000
SAUS44 KLZK 250154
MTRMWT
METAR KMWT 250153Z AUTO 00000KT 10SM CLR M01/M03 A2999 RMK AO2
SLP170 T10061033





000
SAUS44 KLZK 250054
MTRMWT
METAR KMWT 250053Z AUTO 00000KT 10SM CLR 01/M03 A3000 RMK AO2 SLP172
T00111028





    US Dept of Commerce
    National Oceanic and Atmospheric Administration
    National Weather Service
    1325 East West Highway
    Silver Spring, MD 20910
    Page Author: NWS Internet Services Team
Disclaimer
Information Quality
Credits
Glossary
Privacy Policy
Freedom of Information Act (FOIA)
About Us
Career Opportunities